createdAt,value
2023-05-01T00:01:52.409Z,101121.00
2023-05-01T00:04:19.339Z,101111.00
2023-05-01T00:06:46.302Z,101123.00
2023-05-01T00:09:12.995Z,101124.00
2023-05-01T00:11:39.559Z,101115.00
2023-05-01T00:14:06.215Z,101124.00
2023-05-01T00:16:32.727Z,101127.00
2023-05-01T00:18:59.250Z,101113.00
2023-05-01T00:21:25.790Z,101127.00
2023-05-01T00:23:52.363Z,101118.00
2023-05-01T00:26:18.940Z,101118.00
2023-05-01T00:28:47.362Z,101116.00
2023-05-01T00:31:14.039Z,101127.00
2023-05-01T00:33:40.659Z,101113.00
2023-05-01T00:36:07.253Z,101111.00
2023-05-01T00:38:33.745Z,101112.00
2023-05-01T00:41:00.454Z,101111.00
2023-05-01T00:43:27.008Z,101114.00
2023-05-01T00:45:53.533Z,101112.00
2023-05-01T00:48:20.066Z,101113.00
2023-05-01T00:50:47.751Z,101107.00
2023-05-01T00:53:14.461Z,101107.00
2023-05-01T00:55:42.472Z,101099.00
2023-05-01T00:58:10.783Z,101100.00
2023-05-01T01:00:37.829Z,101099.00
2023-05-01T01:03:04.916Z,101101.00
2023-05-01T01:05:32.643Z,101104.00
2023-05-01T01:08:05.269Z,101102.00
2023-05-01T01:10:53.185Z,101096.00
2023-05-01T01:13:29.627Z,101091.00
2023-05-01T01:16:07.755Z,101087.00
2023-05-01T01:18:59.613Z,101087.00
2023-05-01T01:21:35.446Z,101095.00
2023-05-01T01:24:08.006Z,101091.00
2023-05-01T01:26:56.151Z,101084.00
2023-05-01T01:29:43.963Z,101063.00
2023-05-01T01:32:48.039Z,101082.00
2023-05-01T01:35:19.970Z,101086.00
2023-05-01T01:38:00.842Z,101078.00
2023-05-01T01:40:45.210Z,101062.00
2023-05-01T01:43:13.511Z,101066.00
2023-05-01T01:45:43.374Z,101058.00
2023-05-01T01:48:13.333Z,101058.00
2023-05-01T01:50:40.914Z,101069.00
2023-05-01T01:53:10.042Z,101065.00
2023-05-01T01:55:38.362Z,101062.00
2023-05-01T01:58:06.101Z,101058.00
2023-05-01T02:00:34.405Z,101061.00
2023-05-01T02:03:02.387Z,101066.00
2023-05-01T02:05:29.834Z,101060.00
2023-05-01T02:07:56.792Z,101065.00
2023-05-01T02:10:24.343Z,101059.00
2023-05-01T02:12:54.168Z,101054.00
2023-05-01T02:15:21.253Z,101052.00
2023-05-01T02:17:48.752Z,101053.00
2023-05-01T02:20:15.772Z,101050.00
2023-05-01T02:22:44.016Z,101041.00
2023-05-01T02:25:12.931Z,101048.00
2023-05-01T02:27:45.090Z,101042.00
2023-05-01T02:30:12.187Z,101041.00
2023-05-01T02:32:38.871Z,101039.00
2023-05-01T02:35:06.042Z,101045.00
2023-05-01T02:37:33.093Z,101038.00
2023-05-01T02:39:59.993Z,101035.00
2023-05-01T02:42:27.382Z,101029.00
2023-05-01T02:44:57.598Z,101023.00
2023-05-01T02:47:25.077Z,101024.00
2023-05-01T02:49:51.794Z,101023.00
2023-05-01T02:52:19.476Z,101024.00
2023-05-01T02:54:49.557Z,101022.00
2023-05-01T02:57:17.472Z,101011.00
2023-05-01T02:59:44.211Z,101003.00
2023-05-01T03:02:11.524Z,101007.00
2023-05-01T03:04:38.221Z,101002.00
2023-05-01T03:07:04.947Z,101006.00
2023-05-01T03:09:31.932Z,100999.00
2023-05-01T03:11:58.417Z,100984.00
2023-05-01T03:14:25.169Z,100983.00
2023-05-01T03:16:51.878Z,100981.00
2023-05-01T03:19:18.499Z,100983.00
2023-05-01T03:21:45.023Z,100979.00
2023-05-01T03:24:11.783Z,100976.00
2023-05-01T03:26:38.819Z,100980.00
2023-05-01T03:29:05.314Z,100969.00
2023-05-01T03:31:31.923Z,100972.00
2023-05-01T03:33:59.687Z,100962.00
2023-05-01T03:36:27.576Z,100964.00
2023-05-01T03:38:54.828Z,100962.00
2023-05-01T03:41:59.962Z,100966.00
2023-05-01T03:44:29.459Z,100963.00
2023-05-01T03:46:56.053Z,100971.00
2023-05-01T03:49:26.510Z,100965.00
2023-05-01T03:51:53.212Z,100962.00
2023-05-01T03:54:19.816Z,100961.00
2023-05-01T03:56:56.812Z,100971.00
2023-05-01T03:59:23.771Z,100965.00
2023-05-01T04:01:50.362Z,100964.00
2023-05-01T04:04:17.240Z,100974.00
2023-05-01T04:06:49.744Z,100963.00
2023-05-01T04:09:16.549Z,100962.00
2023-05-01T04:11:43.037Z,100963.00
2023-05-01T04:14:09.594Z,100961.00
2023-05-01T04:16:36.843Z,100964.00
2023-05-01T04:19:03.603Z,100964.00
2023-05-01T04:21:32.891Z,100955.00
2023-05-01T04:23:59.955Z,100954.00
2023-05-01T04:26:28.110Z,100959.00
2023-05-01T04:28:54.662Z,100962.00
2023-05-01T04:31:24.585Z,100956.00
2023-05-01T04:33:51.668Z,100963.00
2023-05-01T04:36:18.688Z,100953.00
2023-05-01T04:38:45.179Z,100956.00
2023-05-01T04:41:12.744Z,100951.00
2023-05-01T04:43:39.343Z,100951.00
2023-05-01T04:46:07.551Z,100954.00
2023-05-01T04:48:34.194Z,100942.00
2023-05-01T04:51:00.722Z,100941.00
2023-05-01T04:53:30.854Z,100943.00
2023-05-01T04:55:57.939Z,100940.00
2023-05-01T04:58:24.961Z,100943.00
2023-05-01T05:00:57.951Z,100938.00
2023-05-01T05:03:24.634Z,100938.00
2023-05-01T05:05:51.842Z,100939.00
2023-05-01T05:08:18.826Z,100939.00
2023-05-01T05:10:49.655Z,100944.00
2023-05-01T05:13:26.987Z,100928.00
2023-05-01T05:16:00.801Z,100933.00
2023-05-01T05:18:27.867Z,100942.00
2023-05-01T05:20:55.330Z,100933.00
2023-05-01T05:23:21.892Z,100933.00
2023-05-01T05:25:48.465Z,100921.00
2023-05-01T05:28:14.971Z,100924.00
2023-05-01T05:30:42.389Z,100921.00
2023-05-01T05:33:11.954Z,100909.00
2023-05-01T05:35:38.533Z,100915.00
2023-05-01T05:38:05.078Z,100912.00
2023-05-01T05:40:35.309Z,100903.00
2023-05-01T05:43:02.422Z,100904.00
2023-05-01T05:45:33.757Z,100901.00
2023-05-01T05:48:01.061Z,100903.00
2023-05-01T05:50:30.246Z,100903.00
2023-05-01T05:52:57.745Z,100904.00
2023-05-01T05:55:24.313Z,100898.00
2023-05-01T05:58:04.668Z,100903.00
2023-05-01T06:00:32.111Z,100894.00
2023-05-01T06:03:03.745Z,100894.00
2023-05-01T06:05:32.359Z,100890.00
2023-05-01T06:07:58.934Z,100892.00
2023-05-01T06:10:25.530Z,100898.00
2023-05-01T06:12:58.760Z,100894.00
2023-05-01T06:15:38.746Z,100892.00
2023-05-01T06:18:06.115Z,100901.00
2023-05-01T06:20:32.818Z,100887.00
2023-05-01T06:22:59.412Z,100886.00
2023-05-01T06:25:33.561Z,100894.00
2023-05-01T06:28:00.191Z,100890.00
2023-05-01T06:30:27.115Z,100885.00
2023-05-01T06:32:53.759Z,100881.00
2023-05-01T06:35:21.109Z,100884.00
2023-05-01T06:37:47.906Z,100885.00
2023-05-01T06:40:14.652Z,100887.00
2023-05-01T06:42:42.044Z,100881.00
2023-05-01T06:45:08.885Z,100872.00
2023-05-01T06:47:35.640Z,100880.00
2023-05-01T06:50:05.202Z,100876.00
2023-05-01T06:52:33.480Z,100883.00
2023-05-01T06:55:00.221Z,100873.00
2023-05-01T06:57:27.057Z,100876.00
2023-05-01T06:59:54.239Z,100871.00
2023-05-01T07:02:21.060Z,100867.00
2023-05-01T07:04:47.800Z,100871.00
2023-05-01T07:07:14.412Z,100871.00
2023-05-01T07:09:41.351Z,100876.00
2023-05-01T07:12:08.066Z,100863.00
2023-05-01T07:14:35.523Z,100870.00
2023-05-01T07:17:02.618Z,100866.00
2023-05-01T07:19:29.251Z,100875.00
2023-05-01T07:21:55.857Z,100861.00
2023-05-01T07:24:22.466Z,100868.00
2023-05-01T07:26:49.045Z,100865.00
2023-05-01T07:29:16.559Z,100851.00
2023-05-01T07:31:44.089Z,100855.00
2023-05-01T07:34:11.410Z,100859.00
2023-05-01T07:36:38.616Z,100851.00
2023-05-01T07:39:06.492Z,100847.00
2023-05-01T07:41:33.116Z,100850.00
2023-05-01T07:43:59.896Z,100846.00
2023-05-01T07:46:26.993Z,100846.00
2023-05-01T07:48:56.513Z,100835.00
2023-05-01T07:51:23.820Z,100827.00
2023-05-01T07:53:50.755Z,100838.00
2023-05-01T07:56:17.401Z,100815.00
2023-05-01T07:58:44.118Z,100826.00
2023-05-01T08:01:10.836Z,100818.00
2023-05-01T08:03:37.872Z,100817.00
2023-05-01T08:06:07.650Z,100826.00
2023-05-01T08:08:39.389Z,100805.00
2023-05-01T08:11:06.914Z,100815.00
2023-05-01T08:13:33.533Z,100822.00
2023-05-01T08:16:03.935Z,100817.00
2023-05-01T08:18:31.270Z,100812.00
2023-05-01T08:20:57.810Z,100819.00
2023-05-01T08:23:25.297Z,100818.00
2023-05-01T08:25:52.406Z,100805.00
2023-05-01T08:28:21.030Z,100803.00
2023-05-01T08:30:49.196Z,100813.00
2023-05-01T08:33:16.301Z,100810.00
2023-05-01T08:35:43.088Z,100817.00
2023-05-01T08:38:11.519Z,100818.00
2023-05-01T08:40:38.800Z,100820.00
2023-05-01T08:43:05.328Z,100808.00
2023-05-01T08:45:35.966Z,100807.00
2023-05-01T08:48:06.879Z,100807.00
2023-05-01T08:50:36.306Z,100798.00
2023-05-01T08:53:04.118Z,100785.00
2023-05-01T08:55:32.340Z,100790.00
2023-05-01T08:57:59.631Z,100786.00
2023-05-01T09:00:27.086Z,100788.00
2023-05-01T09:02:54.006Z,100781.00
2023-05-01T09:05:21.306Z,100784.00
2023-05-01T09:07:48.301Z,100779.00
2023-05-01T09:10:18.988Z,100777.00
2023-05-01T09:12:49.863Z,100777.00
2023-05-01T09:15:16.603Z,100761.00
2023-05-01T09:17:44.852Z,100759.00
2023-05-01T09:20:11.581Z,100759.00
2023-05-01T09:22:38.576Z,100752.00
2023-05-01T09:25:05.572Z,100750.00
2023-05-01T09:27:35.804Z,100746.00
2023-05-01T09:30:03.246Z,100747.00
2023-05-01T09:32:29.885Z,100746.00
2023-05-01T09:35:09.846Z,100733.00
2023-05-01T09:37:36.647Z,100728.00
2023-05-01T09:40:03.969Z,100729.00
2023-05-01T09:42:34.670Z,100734.00
2023-05-01T09:45:07.646Z,100709.00
2023-05-01T09:47:46.977Z,100729.00
2023-05-01T09:54:12.219Z,100682.00
2023-05-01T09:56:56.539Z,100688.00
2023-05-01T09:59:55.854Z,100696.00
2023-05-01T10:02:55.858Z,100725.00
2023-05-01T10:05:52.088Z,100694.00
2023-05-01T10:08:41.809Z,100652.00
2023-05-01T10:11:08.603Z,100651.00
2023-05-01T10:13:35.299Z,100661.00
2023-05-01T10:16:05.756Z,100705.00
2023-05-01T10:18:34.055Z,100685.00
2023-05-01T10:21:00.661Z,100647.00
2023-05-01T10:23:27.311Z,100641.00
2023-05-01T10:25:54.040Z,100681.00
2023-05-01T10:28:21.137Z,100688.00
2023-05-01T10:30:48.931Z,100672.00
2023-05-01T10:33:15.765Z,100680.00
2023-05-01T10:35:45.693Z,100677.00
2023-05-01T10:38:19.943Z,100662.00
2023-05-01T10:40:48.077Z,100665.00
2023-05-01T10:43:30.501Z,100659.00
2023-05-01T10:46:22.007Z,100655.00
2023-05-01T10:48:51.635Z,100649.00
2023-05-01T10:51:20.697Z,100646.00
2023-05-01T10:53:48.799Z,100639.00
2023-05-01T10:56:38.627Z,100634.00
2023-05-01T10:59:05.850Z,100631.00
2023-05-01T11:01:39.667Z,100630.00
2023-05-01T11:04:19.605Z,100623.00
2023-05-01T11:06:58.323Z,100623.00
2023-05-01T11:09:44.000Z,100621.00
2023-05-01T11:12:12.082Z,100601.00
2023-05-01T11:14:54.340Z,100603.00
2023-05-01T11:17:39.624Z,100605.00
2023-05-01T11:20:29.898Z,100599.00
2023-05-01T11:22:57.462Z,100594.00
2023-05-01T11:25:25.061Z,100581.00
2023-05-01T11:27:56.668Z,100591.00
2023-05-01T11:30:23.557Z,100575.00
2023-05-01T11:32:51.009Z,100580.00
2023-05-01T11:35:18.949Z,100572.00
2023-05-01T11:37:46.098Z,100565.00
2023-05-01T11:40:23.287Z,100566.00
2023-05-01T11:42:51.317Z,100562.00
2023-05-01T11:45:19.475Z,100558.00
2023-05-01T11:47:46.245Z,100559.00
2023-05-01T11:50:13.278Z,100554.00
2023-05-01T11:52:51.309Z,100553.00
2023-05-01T11:55:18.408Z,100545.00
2023-05-01T11:57:49.483Z,100538.00
2023-05-01T12:00:25.602Z,100544.00
2023-05-01T12:02:57.554Z,100537.00
2023-05-01T12:05:25.668Z,100542.00
2023-05-01T12:07:52.245Z,100533.00
2023-05-01T12:10:19.122Z,100532.00
2023-05-01T12:12:45.721Z,100531.00
2023-05-01T12:15:12.233Z,100532.00
2023-05-01T12:17:38.799Z,100528.00
2023-05-01T12:20:06.080Z,100521.00
2023-05-01T12:22:32.975Z,100515.00
2023-05-01T12:25:00.868Z,100513.00
2023-05-01T12:27:27.919Z,100514.00
2023-05-01T12:29:54.969Z,100511.00
2023-05-01T12:32:32.277Z,100508.00
2023-05-01T12:34:59.112Z,100501.00
2023-05-01T12:37:34.815Z,100494.00
2023-05-01T12:40:02.477Z,100493.00
2023-05-01T12:42:29.018Z,100488.00
2023-05-01T12:45:01.019Z,100493.00
2023-05-01T12:47:36.477Z,100484.00
2023-05-01T12:50:03.354Z,100480.00
2023-05-01T12:52:30.300Z,100476.00
2023-05-01T12:55:07.078Z,100462.00
2023-05-01T12:57:33.918Z,100459.00
2023-05-01T13:00:05.095Z,100472.00
2023-05-01T13:02:33.111Z,100461.00
2023-05-01T13:05:10.751Z,100462.00
2023-05-01T13:07:38.372Z,100465.00
2023-05-01T13:10:06.395Z,100465.00
2023-05-01T13:12:33.257Z,100464.00
2023-05-01T13:14:59.986Z,100466.00
2023-05-01T13:17:28.833Z,100465.00
2023-05-01T13:19:56.186Z,100466.00
2023-05-01T13:22:39.002Z,100466.00
2023-05-01T13:25:15.196Z,100451.00
2023-05-01T13:27:42.846Z,100446.00
2023-05-01T13:30:10.372Z,100435.00
2023-05-01T13:32:40.500Z,100448.00
2023-05-01T13:35:08.310Z,100444.00
2023-05-01T13:37:39.925Z,100440.00
2023-05-01T13:40:07.054Z,100439.00
2023-05-01T13:42:33.622Z,100441.00
2023-05-01T13:45:00.356Z,100438.00
2023-05-01T13:47:27.348Z,100429.00
2023-05-01T13:49:54.138Z,100428.00
2023-05-01T13:52:21.321Z,100439.00
2023-05-01T13:54:48.491Z,100440.00
2023-05-01T13:57:17.281Z,100430.00
2023-05-01T13:59:45.674Z,100422.00
2023-05-01T14:02:22.416Z,100430.00
2023-05-01T14:04:49.075Z,100412.00
2023-05-01T14:07:20.205Z,100412.00
2023-05-01T14:09:56.725Z,100409.00
2023-05-01T14:12:28.454Z,100412.00
2023-05-01T14:14:55.060Z,100409.00
2023-05-01T14:17:36.042Z,100405.00
2023-05-01T14:20:04.843Z,100407.00
2023-05-01T14:22:43.773Z,100399.00
2023-05-01T14:25:28.375Z,100389.00
2023-05-01T14:27:55.912Z,100389.00
2023-05-01T14:30:33.692Z,100379.00
2023-05-01T14:33:11.393Z,100379.00
2023-05-01T14:35:48.919Z,100383.00
2023-05-01T14:38:17.046Z,100382.00
2023-05-01T14:40:44.761Z,100373.00
2023-05-01T14:43:18.424Z,100376.00
2023-05-01T14:45:46.416Z,100359.00
2023-05-01T14:48:24.446Z,100364.00
2023-05-01T14:50:51.882Z,100361.00
2023-05-01T14:53:18.625Z,100358.00
2023-05-01T14:55:45.202Z,100359.00
2023-05-01T14:58:11.779Z,100356.00
2023-05-01T15:00:38.407Z,100353.00
2023-05-01T15:03:05.047Z,100355.00
2023-05-01T15:05:32.191Z,100359.00
2023-05-01T15:08:00.542Z,100353.00
2023-05-01T15:10:28.750Z,100353.00
2023-05-01T15:12:55.604Z,100350.00
2023-05-01T15:15:22.156Z,100350.00
2023-05-01T15:17:48.697Z,100348.00
2023-05-01T15:20:15.247Z,100341.00
2023-05-01T15:22:41.855Z,100334.00
2023-05-01T15:25:10.799Z,100340.00
2023-05-01T15:27:37.192Z,100338.00
2023-05-01T15:30:05.250Z,100335.00
2023-05-01T15:32:32.026Z,100335.00
2023-05-01T15:34:58.936Z,100342.00
2023-05-01T15:37:25.964Z,100343.00
2023-05-01T15:39:52.772Z,100339.00
2023-05-01T15:42:19.678Z,100325.00
2023-05-01T15:44:47.507Z,100330.00
2023-05-01T15:47:14.443Z,100332.00
2023-05-01T15:49:41.419Z,100331.00
2023-05-01T15:52:07.998Z,100326.00
2023-05-01T15:54:34.740Z,100322.00
2023-05-01T15:57:04.508Z,100320.00
2023-05-01T15:59:30.988Z,100318.00
2023-05-01T16:01:57.683Z,100314.00
2023-05-01T16:04:24.259Z,100311.00
2023-05-01T16:06:51.256Z,100318.00
2023-05-01T16:09:18.841Z,100315.00
2023-05-01T16:11:45.413Z,100316.00
2023-05-01T16:14:12.598Z,100318.00
2023-05-01T16:16:41.473Z,100317.00
2023-05-01T16:19:08.323Z,100318.00
2023-05-01T16:21:36.801Z,100317.00
2023-05-01T16:24:03.630Z,100314.00
2023-05-01T16:26:30.982Z,100313.00
2023-05-01T16:29:02.112Z,100317.00
2023-05-01T16:31:35.239Z,100317.00
2023-05-01T16:34:01.956Z,100311.00
2023-05-01T16:36:29.063Z,100306.00
2023-05-01T16:38:56.907Z,100308.00
2023-05-01T16:41:24.165Z,100308.00
2023-05-01T16:43:51.347Z,100310.00
2023-05-01T16:46:18.133Z,100306.00
2023-05-01T16:48:44.735Z,100311.00
2023-05-01T16:51:11.821Z,100309.00
2023-05-01T16:53:38.454Z,100311.00
2023-05-01T16:56:05.500Z,100306.00
2023-05-01T16:58:32.087Z,100311.00
2023-05-01T17:00:59.472Z,100306.00
2023-05-01T17:03:26.271Z,100307.00
2023-05-01T17:05:52.837Z,100307.00
2023-05-01T17:08:19.351Z,100309.00
2023-05-01T17:10:45.845Z,100307.00
2023-05-01T17:13:14.507Z,100305.00
2023-05-01T17:15:41.815Z,100303.00
2023-05-01T17:18:08.523Z,100311.00
2023-05-01T17:20:35.303Z,100304.00
2023-05-01T17:23:01.853Z,100309.00
2023-05-01T17:25:28.460Z,100306.00
2023-05-01T17:27:55.023Z,100300.00
2023-05-01T17:30:21.643Z,100300.00
2023-05-01T17:32:48.351Z,100291.00
2023-05-01T17:35:16.546Z,100299.00
2023-05-01T17:37:43.188Z,100298.00
2023-05-01T17:40:13.128Z,100306.00
2023-05-01T17:42:39.766Z,100305.00
2023-05-01T17:45:07.706Z,100302.00
2023-05-01T17:47:34.606Z,100301.00
2023-05-01T17:50:04.709Z,100299.00
2023-05-01T17:52:31.687Z,100290.00
2023-05-01T17:54:58.341Z,100297.00
2023-05-01T17:57:24.893Z,100291.00
2023-05-01T17:59:51.515Z,100300.00
2023-05-01T18:02:18.212Z,100297.00
2023-05-01T18:04:45.873Z,100296.00
2023-05-01T18:07:12.494Z,100294.00
2023-05-01T18:09:39.045Z,100300.00
2023-05-01T18:12:05.624Z,100297.00
2023-05-01T18:14:32.187Z,100298.00
2023-05-01T18:16:58.822Z,100297.00
2023-05-01T18:19:25.599Z,100292.00
2023-05-01T18:21:52.143Z,100292.00
2023-05-01T18:24:18.701Z,100289.00
2023-05-01T18:26:45.218Z,100282.00
2023-05-01T18:29:12.659Z,100283.00
2023-05-01T18:31:39.394Z,100289.00
2023-05-01T18:34:07.129Z,100293.00
2023-05-01T18:36:33.852Z,100292.00
2023-05-01T18:39:01.810Z,100293.00
2023-05-01T18:41:28.371Z,100288.00
2023-05-01T18:43:57.883Z,100292.00
2023-05-01T18:46:24.777Z,100288.00
2023-05-01T18:48:51.487Z,100290.00
2023-05-01T18:51:18.060Z,100288.00
2023-05-01T18:53:44.662Z,100293.00
2023-05-01T18:56:11.276Z,100295.00
2023-05-01T18:58:39.688Z,100290.00
2023-05-01T19:01:06.687Z,100290.00
2023-05-01T19:03:33.388Z,100287.00
2023-05-01T19:06:02.927Z,100300.00
2023-05-01T19:08:29.465Z,100297.00
2023-05-01T19:10:55.985Z,100307.00
2023-05-01T19:13:22.488Z,100302.00
2023-05-01T19:15:51.842Z,100298.00
2023-05-01T19:18:18.552Z,100300.00
2023-05-01T19:20:47.862Z,100304.00
2023-05-01T19:23:14.628Z,100292.00
2023-05-01T19:25:41.199Z,100298.00
2023-05-01T19:28:07.782Z,100296.00
2023-05-01T19:30:34.323Z,100294.00
2023-05-01T19:33:00.910Z,100292.00
2023-05-01T19:35:27.554Z,100292.00
2023-05-01T19:37:58.445Z,100301.00
2023-05-01T19:40:25.226Z,100290.00
2023-05-01T19:42:51.758Z,100291.00
2023-05-01T19:45:18.346Z,100275.00
2023-05-01T19:47:45.818Z,100291.00
2023-05-01T19:50:12.473Z,100295.00
2023-05-01T19:52:38.967Z,100296.00
2023-05-01T19:55:05.927Z,100294.00
2023-05-01T19:57:33.678Z,100295.00
2023-05-01T20:00:00.539Z,100289.00
2023-05-01T20:02:27.774Z,100274.00
2023-05-01T20:04:54.538Z,100283.00
2023-05-01T20:07:21.204Z,100285.00
2023-05-01T20:09:47.820Z,100274.00
2023-05-01T20:12:14.448Z,100282.00
2023-05-01T20:14:41.024Z,100275.00
2023-05-01T20:17:08.754Z,100271.00
2023-05-01T20:19:36.837Z,100273.00
2023-05-01T20:22:04.986Z,100271.00
2023-05-01T20:24:31.545Z,100276.00
2023-05-01T20:26:59.224Z,100270.00
2023-05-01T20:29:26.885Z,100267.00
2023-05-01T20:31:53.449Z,100273.00
2023-05-01T20:34:20.677Z,100275.00
2023-05-01T20:36:47.296Z,100275.00
2023-05-01T20:39:13.924Z,100288.00
2023-05-01T20:41:40.444Z,100279.00
2023-05-01T20:44:08.769Z,100280.00
2023-05-01T20:46:35.393Z,100277.00
2023-05-01T20:49:02.047Z,100270.00
2023-05-01T20:51:28.577Z,100279.00
2023-05-01T20:53:55.154Z,100288.00
2023-05-01T20:56:21.795Z,100286.00
2023-05-01T20:58:48.324Z,100283.00
2023-05-01T21:01:14.896Z,100283.00
2023-05-01T21:03:41.830Z,100288.00
2023-05-01T21:06:11.226Z,100284.00
2023-05-01T21:08:37.848Z,100286.00
2023-05-01T21:11:08.178Z,100280.00
2023-05-01T21:13:34.688Z,100281.00
2023-05-01T21:16:02.576Z,100288.00
2023-05-01T21:18:33.709Z,100288.00
2023-05-01T21:21:03.792Z,100288.00
2023-05-01T21:23:30.782Z,100291.00
2023-05-01T21:26:00.587Z,100281.00
2023-05-01T21:28:27.589Z,100295.00
2023-05-01T21:30:54.349Z,100291.00
2023-05-01T21:33:21.272Z,100290.00
2023-05-01T21:35:48.314Z,100284.00
2023-05-01T21:38:14.925Z,100301.00
2023-05-01T21:40:42.574Z,100291.00
2023-05-01T21:43:09.574Z,100295.00
2023-05-01T21:45:40.558Z,100298.00
2023-05-01T21:48:09.000Z,100303.00
2023-05-01T21:50:38.001Z,100300.00
2023-05-01T21:53:06.119Z,100303.00
2023-05-01T21:55:33.439Z,100298.00
2023-05-01T21:58:00.064Z,100291.00
2023-05-01T22:00:27.994Z,100301.00
2023-05-01T22:02:54.597Z,100304.00
2023-05-01T22:05:22.767Z,100308.00
2023-05-01T22:07:51.905Z,100309.00
2023-05-01T22:10:19.434Z,100312.00
2023-05-01T22:12:46.874Z,100306.00
2023-05-01T22:15:15.305Z,100300.00
2023-05-01T22:17:42.004Z,100301.00
2023-05-01T22:20:09.299Z,100309.00
2023-05-01T22:22:36.642Z,100311.00
2023-05-01T22:25:04.011Z,100314.00
2023-05-01T22:27:31.166Z,100299.00
2023-05-01T22:29:58.522Z,100307.00
2023-05-01T22:32:25.350Z,100303.00
2023-05-01T22:34:51.951Z,100307.00
2023-05-01T22:37:19.444Z,100311.00
2023-05-01T22:39:46.077Z,100312.00
2023-05-01T22:42:12.622Z,100314.00
2023-05-01T22:44:39.329Z,100306.00
2023-05-01T22:47:06.350Z,100309.00
2023-05-01T22:49:33.315Z,100307.00
2023-05-01T22:51:59.991Z,100316.00
2023-05-01T22:54:26.494Z,100315.00
2023-05-01T22:56:53.025Z,100301.00
2023-05-01T22:59:19.788Z,100308.00
2023-05-01T23:01:46.519Z,100310.00
2023-05-01T23:04:14.069Z,100314.00
2023-05-01T23:06:41.053Z,100312.00
2023-05-01T23:09:08.408Z,100317.00
2023-05-01T23:11:35.206Z,100315.00
2023-05-01T23:14:01.911Z,100319.00
2023-05-01T23:16:32.370Z,100325.00
2023-05-01T23:18:58.976Z,100319.00
2023-05-01T23:21:25.514Z,100318.00
2023-05-01T23:23:52.489Z,100317.00
2023-05-01T23:26:26.788Z,100320.00
2023-05-01T23:28:53.602Z,100318.00
2023-05-01T23:31:27.330Z,100316.00
2023-05-01T23:33:54.938Z,100318.00
2023-05-01T23:36:21.699Z,100312.00
2023-05-01T23:38:48.234Z,100307.00
2023-05-01T23:41:15.243Z,100310.00
2023-05-01T23:43:42.386Z,100305.00
2023-05-01T23:46:09.162Z,100308.00
2023-05-01T23:48:36.285Z,100314.00
2023-05-01T23:51:02.939Z,100306.00
2023-05-01T23:53:29.944Z,100305.00
2023-05-01T23:55:56.853Z,100316.00
2023-05-01T23:58:24.416Z,100305.00
